createdAt,value
2022-11-09T00:01:05.759Z,95588.25
2022-11-09T00:03:32.693Z,95555.84
2022-11-09T00:06:00.564Z,95582.06
2022-11-09T00:08:27.604Z,95593.78
2022-11-09T00:10:54.425Z,95586.50
2022-11-09T00:13:22.127Z,95581.66
2022-11-09T00:15:49.423Z,95591.16
2022-11-09T00:18:16.124Z,95594.38
2022-11-09T00:20:47.702Z,95591.44
2022-11-09T00:23:15.416Z,95593.25
2022-11-09T00:25:42.112Z,95593.13
2022-11-09T00:28:08.910Z,95591.34
2022-11-09T00:30:35.668Z,95576.03
2022-11-09T00:33:02.354Z,95604.28
2022-11-09T00:35:28.990Z,95587.81
2022-11-09T00:37:56.002Z,95582.59
2022-11-09T00:40:22.864Z,95584.97
2022-11-09T00:42:49.469Z,95588.25
2022-11-09T00:45:16.562Z,95580.63
2022-11-09T00:47:44.548Z,95579.78
2022-11-09T00:50:11.265Z,95523.66
2022-11-09T00:52:38.433Z,95592.69
2022-11-09T00:55:05.636Z,95585.31
2022-11-09T00:57:32.349Z,95551.03
2022-11-09T00:59:59.006Z,95581.38
2022-11-09T01:02:25.777Z,95585.44
2022-11-09T01:04:52.492Z,95574.13
2022-11-09T01:07:19.490Z,95586.31
2022-11-09T01:09:46.369Z,95590.78
2022-11-09T01:12:13.050Z,95585.09
2022-11-09T01:14:39.691Z,95583.25
2022-11-09T01:17:06.512Z,95592.38
2022-11-09T01:19:33.141Z,95577.19
2022-11-09T01:21:59.788Z,95578.28
2022-11-09T01:24:26.442Z,95579.22
2022-11-09T01:26:53.037Z,95572.50
2022-11-09T01:29:19.692Z,95562.91
2022-11-09T01:31:46.837Z,95568.25
2022-11-09T01:34:13.497Z,95582.38
2022-11-09T01:36:40.052Z,95571.50
2022-11-09T01:39:06.904Z,95574.34
2022-11-09T01:41:33.581Z,95561.97
2022-11-09T01:44:18.480Z,95556.72
2022-11-09T01:46:59.846Z,95564.47
2022-11-09T01:49:42.006Z,95560.31
2022-11-09T01:52:16.764Z,95566.31
2022-11-09T01:54:49.114Z,95555.44
2022-11-09T01:57:20.784Z,95565.22
2022-11-09T02:00:02.874Z,95562.28
2022-11-09T02:02:29.589Z,95567.31
2022-11-09T02:05:01.657Z,95575.91
2022-11-09T02:07:28.994Z,95574.13
2022-11-09T02:10:13.572Z,95565.13
2022-11-09T02:12:41.130Z,95565.97
2022-11-09T02:15:10.506Z,95566.53
2022-11-09T02:17:37.746Z,95561.53
2022-11-09T02:20:10.920Z,95579.69
2022-11-09T02:22:37.518Z,95574.16
2022-11-09T02:25:05.077Z,95580.34
2022-11-09T02:27:32.296Z,95583.25
2022-11-09T02:30:00.664Z,95580.91
2022-11-09T02:32:29.902Z,95579.78
2022-11-09T02:34:57.094Z,95559.44
2022-11-09T02:37:34.608Z,95580.66
2022-11-09T02:40:04.650Z,95573.81
2022-11-09T02:42:31.907Z,95575.66
2022-11-09T02:45:00.025Z,95576.97
2022-11-09T02:47:27.193Z,95570.34
2022-11-09T02:49:54.079Z,95578.63
2022-11-09T02:52:20.742Z,95571.75
2022-11-09T02:54:47.802Z,95585.78
2022-11-09T02:57:14.457Z,95580.34
2022-11-09T02:59:41.140Z,95572.19
2022-11-09T03:02:07.764Z,95578.94
2022-11-09T03:04:34.513Z,95551.41
2022-11-09T03:07:01.327Z,95575.56
2022-11-09T03:09:27.981Z,95584.66
2022-11-09T03:11:54.635Z,95571.75
2022-11-09T03:14:21.373Z,95575.00
2022-11-09T03:16:50.802Z,95578.59
2022-11-09T03:19:17.790Z,95568.53
2022-11-09T03:21:44.411Z,95570.91
2022-11-09T03:24:11.051Z,95587.94
2022-11-09T03:26:37.716Z,95567.59
2022-11-09T03:29:04.323Z,95571.06
2022-11-09T03:31:30.980Z,95577.25
2022-11-09T03:33:57.620Z,95559.16
2022-11-09T03:36:24.402Z,95589.78
2022-11-09T03:38:51.090Z,95582.69
2022-11-09T03:41:18.274Z,95589.66
2022-11-09T03:43:44.828Z,95596.44
2022-11-09T03:46:11.458Z,95591.78
2022-11-09T03:48:38.099Z,95598.72
2022-11-09T03:51:04.755Z,95581.09
2022-11-09T03:53:31.583Z,95591.44
2022-11-09T03:55:58.416Z,95600.25
2022-11-09T03:58:25.024Z,95596.56
2022-11-09T04:00:51.690Z,95592.31
2022-11-09T04:03:18.504Z,95590.44
2022-11-09T04:05:45.339Z,95591.97
2022-11-09T04:08:12.182Z,95574.63
2022-11-09T04:10:39.126Z,95596.19
2022-11-09T04:13:05.849Z,95588.03
2022-11-09T04:15:32.497Z,95587.13
2022-11-09T04:18:01.106Z,95588.13
2022-11-09T04:20:29.684Z,95593.03
2022-11-09T04:22:59.004Z,95598.69
2022-11-09T04:25:26.411Z,95596.22
2022-11-09T04:27:57.873Z,95586.09
2022-11-09T04:30:28.209Z,95571.88
2022-11-09T04:32:56.584Z,95593.56
2022-11-09T04:35:25.739Z,95593.06
2022-11-09T04:38:00.859Z,95599.19
2022-11-09T04:40:29.876Z,95596.22
2022-11-09T04:42:59.775Z,95598.38
2022-11-09T04:45:27.148Z,95590.66
2022-11-09T04:48:04.504Z,95587.25
2022-11-09T04:50:31.857Z,95589.06
2022-11-09T04:53:10.568Z,95593.47
2022-11-09T04:55:37.929Z,95603.81
2022-11-09T04:58:05.067Z,95603.13
2022-11-09T05:00:31.767Z,95605.59
2022-11-09T05:03:03.794Z,95605.69
2022-11-09T05:05:30.872Z,95609.75
2022-11-09T05:07:57.429Z,95590.41
2022-11-09T05:10:24.257Z,95611.09
2022-11-09T05:12:50.985Z,95612.22
2022-11-09T05:15:17.711Z,95615.16
2022-11-09T05:17:44.631Z,95614.81
2022-11-09T05:20:11.739Z,95609.94
2022-11-09T05:22:59.712Z,95618.78
2022-11-09T05:25:26.292Z,95618.19
2022-11-09T05:27:53.227Z,95626.06
2022-11-09T05:30:20.083Z,95629.28
2022-11-09T05:32:46.712Z,95616.81
2022-11-09T05:35:13.560Z,95632.28
2022-11-09T05:37:40.567Z,95631.34
2022-11-09T05:40:09.285Z,95625.19
2022-11-09T05:42:39.658Z,95610.63
2022-11-09T05:45:35.472Z,95630.91
2022-11-09T05:47:54.117Z,95631.16
2022-11-09T05:50:20.853Z,95635.88
2022-11-09T05:52:47.545Z,95631.88
2022-11-09T05:55:14.174Z,95635.16
2022-11-09T05:57:40.792Z,95635.59
2022-11-09T06:00:10.939Z,95652.75
2022-11-09T06:02:38.018Z,95643.44
2022-11-09T06:05:04.970Z,95643.31
2022-11-09T06:07:32.774Z,95642.13
2022-11-09T06:09:59.433Z,95651.16
2022-11-09T06:12:26.056Z,95663.34
2022-11-09T06:14:52.876Z,95658.47
2022-11-09T06:17:19.724Z,95647.03
2022-11-09T06:19:46.334Z,95658.13
2022-11-09T06:22:12.952Z,95646.16
2022-11-09T06:24:39.796Z,95652.38
2022-11-09T06:27:06.796Z,95657.56
2022-11-09T06:29:33.769Z,95643.88
2022-11-09T06:32:01.184Z,95656.81
2022-11-09T06:34:27.839Z,95668.44
2022-11-09T06:36:54.484Z,95660.63
2022-11-09T06:39:21.289Z,95664.72
2022-11-09T06:41:47.931Z,95666.75
2022-11-09T06:44:15.267Z,95664.47
2022-11-09T06:46:42.209Z,95653.56
2022-11-09T06:49:08.922Z,95663.84
2022-11-09T06:51:35.656Z,95654.91
2022-11-09T06:54:02.488Z,95664.91
2022-11-09T06:56:29.141Z,95664.72
2022-11-09T06:58:55.809Z,95662.56
2022-11-09T07:01:28.262Z,95675.69
2022-11-09T07:03:55.142Z,95649.97
2022-11-09T07:06:21.846Z,95665.69
2022-11-09T07:08:48.487Z,95654.16
2022-11-09T07:11:19.747Z,95655.03
2022-11-09T07:13:53.447Z,95666.69
2022-11-09T07:16:22.945Z,95650.59
2022-11-09T07:18:49.643Z,95663.13
2022-11-09T07:21:16.246Z,95660.69
2022-11-09T07:23:43.476Z,95661.75
2022-11-09T07:26:10.348Z,95668.00
2022-11-09T07:28:37.025Z,95658.25
2022-11-09T07:31:04.035Z,95664.19
2022-11-09T07:33:32.747Z,95667.09
2022-11-09T07:36:01.307Z,95649.13
2022-11-09T07:38:31.464Z,95663.47
2022-11-09T07:41:00.433Z,95658.75
2022-11-09T07:43:27.756Z,95653.88
2022-11-09T07:45:54.617Z,95659.63
2022-11-09T07:48:21.464Z,95660.56
2022-11-09T07:50:48.593Z,95667.28
2022-11-09T07:53:16.146Z,95658.13
2022-11-09T07:55:42.913Z,95657.09
2022-11-09T07:58:13.399Z,95658.09
2022-11-09T08:00:41.420Z,95659.31
2022-11-09T08:03:08.235Z,95658.03
2022-11-09T08:05:35.726Z,95671.03
2022-11-09T08:08:05.194Z,95664.59
2022-11-09T08:10:33.238Z,95671.31
2022-11-09T08:13:02.693Z,95669.97
2022-11-09T08:15:30.034Z,95656.13
2022-11-09T08:18:05.216Z,95667.16
2022-11-09T08:20:32.228Z,95663.22
2022-11-09T08:23:03.780Z,95661.09
2022-11-09T08:25:35.925Z,95651.78
2022-11-09T08:28:03.724Z,95646.13
2022-11-09T08:30:31.413Z,95655.81
2022-11-09T08:33:02.952Z,95665.34
2022-11-09T08:35:30.266Z,95664.94
2022-11-09T08:38:00.458Z,95658.44
2022-11-09T08:40:27.339Z,95662.59
2022-11-09T08:42:54.249Z,95665.03
2022-11-09T08:45:21.002Z,95657.69
2022-11-09T08:47:48.404Z,95660.91
2022-11-09T08:50:15.577Z,95653.28
2022-11-09T08:52:42.865Z,95663.47
2022-11-09T08:55:09.831Z,95660.00
2022-11-09T08:57:36.558Z,95660.22
2022-11-09T09:00:04.723Z,95660.19
2022-11-09T09:02:31.662Z,95668.69
2022-11-09T09:04:58.333Z,95668.88
2022-11-09T09:07:25.088Z,95659.59
2022-11-09T09:09:51.822Z,95658.09
2022-11-09T09:12:19.005Z,95649.28
2022-11-09T09:14:45.711Z,95659.59
2022-11-09T09:17:12.566Z,95649.75
2022-11-09T09:19:39.230Z,95647.47
2022-11-09T09:22:06.074Z,95661.44
2022-11-09T09:24:32.829Z,95645.69
2022-11-09T09:26:59.514Z,95655.75
2022-11-09T09:29:26.670Z,95649.69
2022-11-09T09:31:53.526Z,95658.19
2022-11-09T09:34:20.150Z,95643.31
2022-11-09T09:36:48.402Z,95649.47
2022-11-09T09:39:15.656Z,95652.13
2022-11-09T09:41:55.809Z,95646.97
2022-11-09T09:44:29.214Z,95636.09
2022-11-09T09:47:00.320Z,95647.34
2022-11-09T09:49:31.416Z,95641.72
2022-11-09T09:52:36.321Z,95631.56
2022-11-09T09:55:33.052Z,95617.78
2022-11-09T09:58:07.820Z,95629.66
2022-11-09T10:00:36.310Z,95617.81
2022-11-09T10:03:03.608Z,95624.19
2022-11-09T10:05:51.528Z,95612.78
2022-11-09T10:08:54.986Z,95617.63
2022-11-09T10:12:04.018Z,95610.47
2022-11-09T10:15:15.791Z,95600.00
2022-11-09T10:18:08.036Z,95600.63
2022-11-09T10:20:53.261Z,95614.19
2022-11-09T10:23:40.173Z,95608.97
2022-11-09T10:26:21.585Z,95601.38
2022-11-09T10:29:15.090Z,95601.38
2022-11-09T10:31:46.345Z,95603.63
2022-11-09T10:34:35.450Z,95586.34
2022-11-09T10:37:10.702Z,95596.72
2022-11-09T10:39:47.521Z,95598.31
2022-11-09T10:42:14.199Z,95593.19
2022-11-09T10:44:41.312Z,95595.50
2022-11-09T10:47:11.411Z,95584.81
2022-11-09T10:49:39.364Z,95578.34
2022-11-09T10:52:27.082Z,95575.94
2022-11-09T10:54:53.869Z,95562.69
2022-11-09T10:57:23.493Z,95569.38
2022-11-09T11:00:01.102Z,95575.22
2022-11-09T11:02:29.030Z,95564.84
2022-11-09T11:05:07.697Z,95564.66
2022-11-09T11:07:35.816Z,95554.97
2022-11-09T11:10:18.390Z,95551.53
2022-11-09T11:12:51.974Z,95553.34
2022-11-09T11:15:32.810Z,95548.88
2022-11-09T11:18:13.077Z,95551.34
2022-11-09T11:20:39.732Z,95551.72
2022-11-09T11:23:09.236Z,95556.53
2022-11-09T11:25:54.020Z,95545.25
2022-11-09T11:28:56.487Z,95545.78
2022-11-09T11:31:23.367Z,95548.69
2022-11-09T11:33:50.095Z,95539.63
2022-11-09T11:36:58.245Z,95537.44
2022-11-09T11:39:36.635Z,95540.19
2022-11-09T11:42:24.638Z,95536.09
2022-11-09T11:45:40.145Z,95536.88
2022-11-09T11:48:26.510Z,95537.06
2022-11-09T11:51:18.282Z,95531.59
2022-11-09T11:54:15.108Z,95527.91
2022-11-09T11:57:02.031Z,95524.38
2022-11-09T11:59:37.814Z,95525.09
2022-11-09T12:02:32.337Z,95521.16
2022-11-09T12:05:46.634Z,95517.47
2022-11-09T12:08:25.653Z,95522.09
2022-11-09T12:11:01.322Z,95516.63
2022-11-09T12:13:48.433Z,95525.84
2022-11-09T12:16:26.089Z,95507.75
2022-11-09T12:19:35.558Z,95501.47
2022-11-09T12:22:25.135Z,95490.84
2022-11-09T12:24:58.301Z,95500.97
2022-11-09T12:27:54.069Z,95510.00
2022-11-09T12:30:24.053Z,95501.19
2022-11-09T12:33:15.865Z,95505.53
2022-11-09T12:35:55.815Z,95505.50
2022-11-09T12:38:36.662Z,95497.78
2022-11-09T12:41:16.305Z,95483.78
2022-11-09T12:43:52.834Z,95498.59
2022-11-09T12:46:23.612Z,95493.66
2022-11-09T12:48:50.318Z,95490.31
2022-11-09T12:51:17.704Z,95502.50
2022-11-09T12:53:44.506Z,95491.91
2022-11-09T12:56:24.856Z,95497.53
2022-11-09T12:58:51.791Z,95490.38
2022-11-09T13:01:33.715Z,95496.03
2022-11-09T13:04:03.158Z,95499.84
2022-11-09T13:06:32.267Z,95484.31
2022-11-09T13:09:18.512Z,95470.50
2022-11-09T13:11:48.415Z,95487.28
2022-11-09T13:14:29.242Z,95487.31
2022-11-09T13:17:01.497Z,95472.97
2022-11-09T13:19:34.065Z,95487.75
2022-11-09T13:22:20.690Z,95490.28
2022-11-09T13:24:54.378Z,95475.53
2022-11-09T13:27:32.734Z,95483.28
2022-11-09T13:30:01.010Z,95470.22
2022-11-09T13:32:29.979Z,95483.13
2022-11-09T13:34:58.418Z,95488.25
2022-11-09T13:37:40.725Z,95488.47
2022-11-09T13:40:32.201Z,95479.56
2022-11-09T13:43:04.098Z,95485.69
2022-11-09T13:45:39.146Z,95494.53
2022-11-09T13:48:06.985Z,95486.50
2022-11-09T13:50:35.030Z,95479.81
2022-11-09T13:53:02.570Z,95484.38
2022-11-09T13:55:47.306Z,95478.91
2022-11-09T13:58:28.891Z,95480.72
2022-11-09T14:00:55.517Z,95483.25
2022-11-09T14:03:26.018Z,95476.97
2022-11-09T14:05:55.742Z,95483.47
2022-11-09T14:08:24.441Z,95474.66
2022-11-09T14:11:16.146Z,95480.38
2022-11-09T14:14:03.137Z,95478.34
2022-11-09T14:16:39.058Z,95477.81
2022-11-09T14:19:17.870Z,95483.09
2022-11-09T14:21:47.838Z,95486.75
2022-11-09T14:24:32.727Z,95482.44
2022-11-09T14:27:13.444Z,95483.22
2022-11-09T14:29:57.635Z,95482.06
2022-11-09T14:32:36.213Z,95485.16
2022-11-09T14:35:14.749Z,95486.91
2022-11-09T14:37:45.269Z,95485.91
2022-11-09T14:40:21.719Z,95486.75
2022-11-09T14:42:51.405Z,95473.06
2022-11-09T14:45:18.327Z,95488.28
2022-11-09T14:47:47.408Z,95478.69
2022-11-09T14:50:24.106Z,95488.25
2022-11-09T14:52:52.937Z,95488.78
2022-11-09T14:55:21.530Z,95492.06
2022-11-09T14:57:50.262Z,95481.06
2022-11-09T15:00:38.740Z,95498.25
2022-11-09T15:03:26.131Z,95494.28
2022-11-09T15:06:14.926Z,95493.84
2022-11-09T15:09:00.345Z,95492.19
2022-11-09T15:11:39.305Z,95498.53
2022-11-09T15:14:19.010Z,95498.75
2022-11-09T15:16:47.967Z,95491.59
2022-11-09T15:19:30.014Z,95481.28
2022-11-09T15:21:56.877Z,95483.75
2022-11-09T15:24:25.866Z,95501.91
2022-11-09T15:26:53.755Z,95494.50
2022-11-09T15:29:35.617Z,95498.38
2022-11-09T15:32:11.683Z,95498.66
2022-11-09T15:34:59.383Z,95479.81
2022-11-09T15:37:47.444Z,95493.84
2022-11-09T15:40:17.200Z,95499.97
2022-11-09T15:42:46.376Z,95493.16
2022-11-09T15:45:18.461Z,95492.00
2022-11-09T15:47:53.879Z,95485.31
2022-11-09T15:50:24.348Z,95497.69
2022-11-09T15:52:52.020Z,95504.59
2022-11-09T15:55:23.362Z,95501.28
2022-11-09T15:57:52.501Z,95501.03
2022-11-09T16:00:21.482Z,95490.28
2022-11-09T16:02:48.755Z,95510.06
2022-11-09T16:05:16.038Z,95484.16
2022-11-09T16:07:50.171Z,95507.91
2022-11-09T16:10:20.533Z,95502.47
2022-11-09T16:12:47.609Z,95508.28
2022-11-09T16:15:14.391Z,95501.78
2022-11-09T16:17:40.994Z,95507.28
2022-11-09T16:20:08.186Z,95508.81
2022-11-09T16:22:35.061Z,95508.69
2022-11-09T16:25:01.951Z,95518.56
2022-11-09T16:27:49.200Z,95521.47
2022-11-09T16:30:15.861Z,95511.13
2022-11-09T16:32:42.765Z,95517.06
2022-11-09T16:35:27.767Z,95514.03
2022-11-09T16:37:55.475Z,95517.34
2022-11-09T16:40:22.958Z,95513.13
2022-11-09T16:42:51.637Z,95518.88
2022-11-09T16:45:18.300Z,95505.53
2022-11-09T16:47:56.402Z,95517.81
2022-11-09T16:50:24.592Z,95511.31
2022-11-09T16:52:51.385Z,95525.25
2022-11-09T16:55:18.005Z,95526.94
2022-11-09T16:57:46.316Z,95528.28
2022-11-09T17:00:13.834Z,95502.78
2022-11-09T17:02:40.389Z,95532.84
2022-11-09T17:05:07.390Z,95532.38
2022-11-09T17:07:42.124Z,95532.06
2022-11-09T17:10:09.689Z,95534.03
2022-11-09T17:12:36.582Z,95542.38
2022-11-09T17:15:03.310Z,95538.88
2022-11-09T17:17:29.954Z,95552.38
2022-11-09T17:19:56.695Z,95524.91
2022-11-09T17:22:23.391Z,95552.06
2022-11-09T17:24:50.225Z,95544.44
2022-11-09T17:27:16.966Z,95545.28
2022-11-09T17:29:43.556Z,95554.94
2022-11-09T17:32:10.656Z,95544.31
2022-11-09T17:34:37.557Z,95568.75
2022-11-09T17:37:05.553Z,95576.59
2022-11-09T17:39:33.008Z,95575.72
2022-11-09T17:41:59.785Z,95585.97
2022-11-09T17:44:27.019Z,95579.47
2022-11-09T17:46:53.834Z,95586.25
2022-11-09T17:49:20.398Z,95581.38
2022-11-09T17:51:47.101Z,95585.44
2022-11-09T17:54:15.051Z,95574.94
2022-11-09T17:56:41.999Z,95567.41
2022-11-09T17:59:09.186Z,95580.97
2022-11-09T18:01:41.042Z,95551.13
2022-11-09T18:04:10.723Z,95585.41
2022-11-09T18:06:38.824Z,95568.03
2022-11-09T18:11:53.066Z,95584.03
2022-11-09T18:14:20.029Z,95578.31
2022-11-09T18:16:46.730Z,95565.72
2022-11-09T18:19:13.485Z,95588.03
2022-11-09T18:21:40.177Z,95581.31
2022-11-09T18:24:07.374Z,95579.03
2022-11-09T18:26:34.380Z,95587.63
2022-11-09T18:29:01.270Z,95581.97
2022-11-09T18:31:28.053Z,95598.72
2022-11-09T18:34:59.684Z,95575.03
2022-11-09T18:38:20.340Z,95597.00
2022-11-09T18:41:01.512Z,95593.19
2022-11-09T18:43:28.325Z,95589.72
2022-11-09T18:46:02.993Z,95561.13
2022-11-09T18:48:30.372Z,95600.75
2022-11-09T18:50:58.745Z,95607.50
2022-11-09T18:53:33.625Z,95607.38
2022-11-09T18:56:06.548Z,95602.28
2022-11-09T18:58:34.205Z,95603.03
2022-11-09T19:01:06.152Z,95609.34
2022-11-09T19:03:33.416Z,95600.19
2022-11-09T19:06:08.120Z,95602.50
2022-11-09T19:08:53.765Z,95585.44
2022-11-09T19:11:20.413Z,95592.72
2022-11-09T19:13:47.739Z,95594.78
2022-11-09T19:16:15.460Z,95588.72
2022-11-09T19:18:44.674Z,95600.78
2022-11-09T19:21:31.833Z,95566.84
2022-11-09T19:23:58.627Z,95592.41
2022-11-09T19:26:27.747Z,95597.63
2022-11-09T19:28:54.396Z,95599.25
2022-11-09T19:31:22.691Z,95599.38
2022-11-09T19:33:49.347Z,95599.25
2022-11-09T19:36:29.775Z,95601.88
2022-11-09T19:38:57.867Z,95608.00
2022-11-09T19:41:26.018Z,95598.41
2022-11-09T19:43:55.625Z,95606.88
2022-11-09T19:46:22.369Z,95607.53
2022-11-09T19:48:49.328Z,95608.09
2022-11-09T19:51:17.813Z,95612.63
2022-11-09T19:53:52.733Z,95613.59
2022-11-09T19:56:21.184Z,95625.44
2022-11-09T19:58:54.309Z,95622.69
2022-11-09T20:01:24.715Z,95634.38
2022-11-09T20:03:56.867Z,95625.44
2022-11-09T20:06:24.559Z,95629.53
2022-11-09T20:08:52.238Z,95630.41
2022-11-09T20:11:41.682Z,95627.75
2022-11-09T20:14:09.559Z,95635.00
2022-11-09T20:16:37.360Z,95615.72
2022-11-09T20:19:05.930Z,95608.66
2022-11-09T20:21:32.924Z,95637.81
2022-11-09T20:23:59.567Z,95623.94
2022-11-09T20:26:26.289Z,95626.69
2022-11-09T20:28:54.799Z,95640.53
2022-11-09T20:31:25.786Z,95637.38
2022-11-09T20:33:56.613Z,95646.41
2022-11-09T20:36:23.158Z,95643.78
2022-11-09T20:38:49.939Z,95643.00
2022-11-09T20:41:18.013Z,95634.78
2022-11-09T20:43:47.230Z,95629.53
2022-11-09T20:46:19.774Z,95637.56
2022-11-09T20:48:54.220Z,95636.72
2022-11-09T20:51:22.822Z,95627.06
2022-11-09T20:53:50.846Z,95629.69
2022-11-09T20:56:18.848Z,95629.69
2022-11-09T20:58:45.834Z,95634.84
2022-11-09T21:01:15.948Z,95627.59
2022-11-09T21:03:43.496Z,95642.88
2022-11-09T21:06:11.992Z,95628.81
2022-11-09T21:08:39.094Z,95640.16
2022-11-09T21:11:08.016Z,95627.19
2022-11-09T21:13:34.835Z,95635.56
2022-11-09T21:16:10.169Z,95647.53
2022-11-09T21:18:36.900Z,95632.78
2022-11-09T21:21:15.681Z,95613.38
2022-11-09T21:24:01.285Z,95624.41
2022-11-09T21:26:47.333Z,95629.69
2022-11-09T21:29:41.449Z,95644.94
2022-11-09T21:32:09.472Z,95648.66
2022-11-09T21:34:37.297Z,95640.53
2022-11-09T21:37:04.687Z,95618.47
2022-11-09T21:39:31.434Z,95646.88
2022-11-09T21:41:58.786Z,95644.91
2022-11-09T21:44:27.776Z,95650.78
2022-11-09T21:46:54.491Z,95648.13
2022-11-09T21:49:21.751Z,95637.84
2022-11-09T21:51:48.411Z,95650.16
2022-11-09T21:54:15.134Z,95651.41
2022-11-09T21:56:41.940Z,95642.09
2022-11-09T21:59:08.652Z,95652.84
2022-11-09T22:01:35.886Z,95650.28
2022-11-09T22:04:02.736Z,95652.19
2022-11-09T22:06:30.248Z,95656.41
2022-11-09T22:08:57.002Z,95649.13
2022-11-09T22:11:46.118Z,95638.44
2022-11-09T22:14:33.555Z,95591.38
2022-11-09T22:17:00.745Z,95651.41
2022-11-09T22:19:47.181Z,95659.88
2022-11-09T22:22:14.670Z,95662.69
2022-11-09T22:24:41.379Z,95657.59
2022-11-09T22:27:08.184Z,95666.25
2022-11-09T22:29:34.894Z,95663.13
2022-11-09T22:32:02.687Z,95653.19
2022-11-09T22:34:29.387Z,95658.28
2022-11-09T22:36:56.068Z,95636.38
2022-11-09T22:39:22.796Z,95656.41
2022-11-09T22:41:49.429Z,95650.81
2022-11-09T22:44:16.164Z,95591.75
2022-11-09T22:46:42.971Z,95652.66
2022-11-09T22:49:10.444Z,95663.44
2022-11-09T22:51:37.239Z,95658.31
2022-11-09T22:54:04.099Z,95666.53
2022-11-09T22:56:30.820Z,95670.19
2022-11-09T22:58:57.459Z,95663.31
2022-11-09T23:01:24.192Z,95675.88
2022-11-09T23:03:50.990Z,95655.28
2022-11-09T23:06:20.952Z,95670.81
2022-11-09T23:08:48.250Z,95681.19
2022-11-09T23:11:17.882Z,95664.78
2022-11-09T23:13:48.328Z,95656.50
2022-11-09T23:16:15.171Z,95669.59
2022-11-09T23:18:54.102Z,95668.41
2022-11-09T23:21:41.551Z,95668.72
2022-11-09T23:24:30.981Z,95667.28
2022-11-09T23:26:57.546Z,95680.09
2022-11-09T23:29:24.220Z,95648.63
2022-11-09T23:31:50.801Z,95669.06
2022-11-09T23:34:17.690Z,95667.56
2022-11-09T23:36:44.484Z,95668.63
2022-11-09T23:39:11.259Z,95666.41
2022-11-09T23:41:37.890Z,95665.81
2022-11-09T23:44:04.541Z,95660.84
2022-11-09T23:46:31.177Z,95658.06
2022-11-09T23:48:57.897Z,95671.69
2022-11-09T23:51:24.627Z,95664.88
2022-11-09T23:53:51.378Z,95665.22
2022-11-09T23:56:19.306Z,95669.19
2022-11-09T23:58:51.463Z,95662.38
